Time;durP1;ratioP1;P1;durP2;ratioP2;P2;SDS_P1;SDS_P2;PMS_P1;PMS_P2;Temp;Humidity;BMP_temperature;BMP_pressure;BME280_temperature;BME280_humidity;BME280_pressure;Samples;Min_cycle;Max_cycle;Signal;HPM_P1;HPM_P2
2022/09/27 00:01:23;;;;;;;3.93;1.67;;;;;;;;;;5096469;28;20257;-77
2022/09/27 00:03:54;;;;;;;3.90;1.60;;;;;;;;;;5097600;28;20253;-77
2022/09/27 00:06:28;;;;;;;3.40;1.60;;;;;;;;;;5097217;28;20024;-78
2022/09/27 00:08:53;;;;;;;2.22;1.40;;;;;;;;;;5097695;28;20027;-77
2022/09/27 00:11:25;;;;;;;6.93;1.63;;;;;;;;;;5097478;28;20028;-77
2022/09/27 00:13:51;;;;;;;4.15;1.40;;;;;;;;;;5096920;28;20096;-77
2022/09/27 00:16:16;;;;;;;2.97;1.70;;;;;;;;;;5096912;28;20537;-76
2022/09/27 00:18:41;;;;;;;3.58;1.70;;;;;;;;;;5095261;28;20031;-76
2022/09/27 00:21:10;;;;;;;5.10;1.55;;;;;;;;;;5096660;28;20031;-77
2022/09/27 00:23:36;;;;;;;5.78;1.60;;;;;;;;;;5096308;28;20016;-76
2022/09/27 00:26:01;;;;;;;4.25;1.70;;;;;;;;;;5096379;28;20055;-76
2022/09/27 00:28:27;;;;;;;6.43;1.80;;;;;;;;;;5096340;28;20039;-76
2022/09/27 00:30:52;;;;;;;3.35;1.67;;;;;;;;;;5096529;28;20024;-76
2022/09/27 00:33:18;;;;;;;2.17;1.58;;;;;;;;;;5096232;28;20493;-77
2022/09/27 00:35:43;;;;;;;4.43;1.58;;;;;;;;;;5096430;28;20035;-76
2022/09/27 00:38:09;;;;;;;4.10;1.77;;;;;;;;;;5096121;28;20016;-76
2022/09/27 00:40:35;;;;;;;4.45;1.50;;;;;;;;;;5096237;28;20381;-76
2022/09/27 00:43:00;;;;;;;3.78;1.80;;;;;;;;;;5094323;28;20020;-77
2022/09/27 00:45:25;;;;;;;4.00;1.57;;;;;;;;;;5096066;28;20047;-77
2022/09/27 00:47:56;;;;;;;3.27;1.47;;;;;;;;;;5096213;28;20374;-76
2022/09/27 00:50:28;;;;;;;1.80;1.30;;;;;;;;;;5096233;28;20617;-77
2022/09/27 00:53:00;;;;;;;3.53;1.60;;;;;;;;;;5095329;28;20035;-77
2022/09/27 00:55:32;;;;;;;3.33;1.50;;;;;;;;;;5096139;28;20028;-76
2022/09/27 00:57:57;;;;;;;4.18;1.60;;;;;;;;;;5095277;28;20110;-76
2022/09/27 01:00:22;;;;;;;3.47;1.65;;;;;;;;;;5095507;28;20055;-76
2022/09/27 01:02:50;;;;;;;5.57;1.55;;;;;;;;;;5096076;28;20107;-77
2022/09/27 01:05:18;;;;;;;3.40;1.77;;;;;;;;;;5095310;28;20028;-77
2022/09/27 01:07:44;;;;;;;3.30;1.60;;;;;;;;;;5094363;28;20081;-77
2022/09/27 01:10:09;;;;;;;1.83;1.40;;;;;;;;;;5094303;28;20028;-77
2022/09/27 01:12:48;;;;;;;2.28;1.40;;;;;;;;;;5094718;28;20357;-76
2022/09/27 01:16:08;;;;;;;2.83;1.50;;;;;;;;;;5095794;28;20115;-76
2022/09/27 01:18:45;;;;;;;3.50;1.42;;;;;;;;;;5014164;28;20496;-77
2022/09/27 01:21:33;;;;;;;3.05;1.42;;;;;;;;;;5095203;28;20036;-77
2022/09/27 01:24:17;;;;;;;4.18;1.48;;;;;;;;;;5095585;28;20089;-77
2022/09/27 01:27:00;;;;;;;2.10;1.42;;;;;;;;;;5093938;28;20024;-76
2022/09/27 01:29:41;;;;;;;2.03;1.30;;;;;;;;;;5096216;28;20054;-76
2022/09/27 01:32:21;;;;;;;3.45;1.30;;;;;;;;;;5097001;28;20031;-76
2022/09/27 01:34:55;;;;;;;3.53;1.33;;;;;;;;;;5099121;28;20085;-75
2022/09/27 01:37:35;;;;;;;4.70;1.30;;;;;;;;;;5098162;28;20103;-76
2022/09/27 01:40:16;;;;;;;1.85;1.30;;;;;;;;;;5096918;28;20050;-76
2022/09/27 01:42:59;;;;;;;1.88;1.20;;;;;;;;;;5096579;28;20020;-76
2022/09/27 01:45:32;;;;;;;2.53;1.30;;;;;;;;;;5095932;28;20119;-77
2022/09/27 01:48:01;;;;;;;2.35;1.20;;;;;;;;;;5096690;28;20036;-76
2022/09/27 01:50:37;;;;;;;1.88;1.20;;;;;;;;;;5098586;28;20039;-76
2022/09/27 01:53:09;;;;;;;1.55;1.20;;;;;;;;;;5096930;28;20493;-76
2022/09/27 01:55:37;;;;;;;3.30;1.38;;;;;;;;;;5098219;28;20086;-77
2022/09/27 01:58:15;;;;;;;4.03;1.30;;;;;;;;;;5097618;28;20068;-76
2022/09/27 02:00:44;;;;;;;2.47;1.30;;;;;;;;;;5097339;28;20028;-76
2022/09/27 02:03:13;;;;;;;2.95;1.40;;;;;;;;;;5098367;28;20016;-77
2022/09/27 02:06:23;;;;;;;1.63;1.10;;;;;;;;;;5101201;28;20026;-76
2022/09/27 02:08:55;;;;;;;2.65;1.40;;;;;;;;;;5060741;28;20051;-76
2022/09/27 02:11:20;;;;;;;2.72;1.27;;;;;;;;;;5096416;28;20028;-76
2022/09/27 02:13:49;;;;;;;1.52;1.20;;;;;;;;;;5098143;28;20516;-77
2022/09/27 02:16:34;;;;;;;3.13;1.60;;;;;;;;;;5099766;28;20419;-76
2022/09/27 02:19:23;;;;;;;3.17;1.40;;;;;;;;;;5099859;28;20020;-76
2022/09/27 02:22:18;;;;;;;2.00;1.27;;;;;;;;;;5101665;28;20023;-77
2022/09/27 02:24:53;;;;;;;3.17;1.55;;;;;;;;;;5099708;28;20028;-77
2022/09/27 02:27:27;;;;;;;3.00;1.33;;;;;;;;;;5101868;28;20396;-76
2022/09/27 02:29:59;;;;;;;2.25;1.33;;;;;;;;;;5101235;28;20511;-77
2022/09/27 02:32:25;;;;;;;3.67;1.35;;;;;;;;;;5100791;28;20024;-76
2022/09/27 02:34:51;;;;;;;2.97;1.58;;;;;;;;;;5099460;28;20111;-77
2022/09/27 02:37:16;;;;;;;4.55;1.50;;;;;;;;;;5100125;28;20043;-77
2022/09/27 02:39:42;;;;;;;2.90;1.38;;;;;;;;;;5098890;28;20028;-79
2022/09/27 02:42:07;;;;;;;2.97;1.33;;;;;;;;;;5100784;28;20522;-76
2022/09/27 02:44:33;;;;;;;3.45;1.60;;;;;;;;;;5099032;28;20028;-77
2022/09/27 02:47:25;;;;;;;3.13;1.52;;;;;;;;;;5099660;28;20020;-77
2022/09/27 02:50:17;;;;;;;2.60;1.55;;;;;;;;;;5099259;28;20493;-76
2022/09/27 02:53:08;;;;;;;2.67;1.70;;;;;;;;;;5102021;28;20055;-76
2022/09/27 02:55:40;;;;;;;3.33;1.98;;;;;;;;;;5098747;28;20031;-76
2022/09/27 02:58:05;;;;;;;2.85;1.80;;;;;;;;;;5097851;28;20028;-78
2022/09/27 03:00:54;;;;;;;4.37;1.73;;;;;;;;;;5100069;28;20036;-77
2022/09/27 03:03:44;;;;;;;4.18;2.00;;;;;;;;;;5098761;28;20058;-76
2022/09/27 03:06:13;;;;;;;3.35;2.10;;;;;;;;;;5097973;28;20024;-76
2022/09/27 03:08:40;;;;;;;3.97;2.28;;;;;;;;;;5098098;28;20027;-77
2022/09/27 03:11:05;;;;;;;3.97;1.90;;;;;;;;;;5098490;28;20028;-77
2022/09/27 03:13:30;;;;;;;3.63;1.92;;;;;;;;;;5098216;28;20043;-76
2022/09/27 03:15:55;;;;;;;4.55;1.98;;;;;;;;;;5097541;28;20023;-77
2022/09/27 03:18:21;;;;;;;3.30;1.90;;;;;;;;;;5098918;28;20074;-77
2022/09/27 03:20:46;;;;;;;3.47;1.90;;;;;;;;;;5097510;28;20028;-77
2022/09/27 03:23:12;;;;;;;3.90;2.38;;;;;;;;;;5097437;28;20349;-76
2022/09/27 03:25:37;;;;;;;4.57;2.35;;;;;;;;;;5097092;28;20036;-76
2022/09/27 03:28:02;;;;;;;2.35;1.88;;;;;;;;;;5097160;28;20032;-76
2022/09/27 03:30:27;;;;;;;5.15;2.30;;;;;;;;;;5097304;28;20115;-77
2022/09/27 03:32:53;;;;;;;4.43;1.90;;;;;;;;;;5095102;28;20024;-77
2022/09/27 03:35:18;;;;;;;4.63;2.50;;;;;;;;;;5096144;28;20261;-76
2022/09/27 03:37:43;;;;;;;3.57;2.10;;;;;;;;;;5096941;28;20329;-77
2022/09/27 03:40:09;;;;;;;4.10;2.40;;;;;;;;;;5096266;28;20252;-77
2022/09/27 03:42:34;;;;;;;4.90;2.42;;;;;;;;;;5096118;28;20392;-77
2022/09/27 03:44:59;;;;;;;3.93;2.43;;;;;;;;;;5096079;28;20035;-77
2022/09/27 03:47:25;;;;;;;4.73;2.50;;;;;;;;;;5095065;28;20272;-77
2022/09/27 03:49:50;;;;;;;4.80;2.57;;;;;;;;;;5094272;28;20264;-75
2022/09/27 03:52:17;;;;;;;5.28;2.90;;;;;;;;;;5095820;28;20256;-76
2022/09/27 03:54:42;;;;;;;5.82;2.92;;;;;;;;;;5095604;28;20023;-76
2022/09/27 03:57:08;;;;;;;8.57;2.80;;;;;;;;;;5096899;28;20024;-77
2022/09/27 03:59:33;;;;;;;6.20;3.15;;;;;;;;;;5095235;28;20020;-77
2022/09/27 04:01:58;;;;;;;3.83;2.97;;;;;;;;;;5095020;28;20020;-77
2022/09/27 04:04:23;;;;;;;8.20;3.58;;;;;;;;;;5095103;28;20260;-76
2022/09/27 04:06:49;;;;;;;5.07;3.17;;;;;;;;;;5095176;28;20048;-76
2022/09/27 04:09:14;;;;;;;7.45;3.45;;;;;;;;;;5094931;28;20036;-77
2022/09/27 04:11:39;;;;;;;5.60;3.43;;;;;;;;;;5094145;28;20374;-77
2022/09/27 04:14:04;;;;;;;4.83;3.43;;;;;;;;;;5094174;28;20812;-77
2022/09/27 04:16:31;;;;;;;5.25;3.50;;;;;;;;;;5094212;28;20765;-77
2022/09/27 04:18:57;;;;;;;7.07;3.80;;;;;;;;;;5095839;28;20020;-77
2022/09/27 04:21:22;;;;;;;5.90;3.88;;;;;;;;;;5094526;28;20527;-77
2022/09/27 04:23:47;;;;;;;5.50;3.58;;;;;;;;;;5096003;28;20020;-77
2022/09/27 04:26:12;;;;;;;7.70;4.37;;;;;;;;;;5095484;28;20016;-76
2022/09/27 04:28:38;;;;;;;5.70;4.10;;;;;;;;;;5094932;28;20326;-76
2022/09/27 04:31:03;;;;;;;7.68;4.00;;;;;;;;;;5095170;28;20336;-77
2022/09/27 04:33:28;;;;;;;12.32;4.50;;;;;;;;;;5094770;28;20028;-77
2022/09/27 04:38:38;;;;;;;6.63;4.30;;;;;;;;;;5094007;28;20752;-77
2022/09/27 04:41:04;;;;;;;7.03;4.55;;;;;;;;;;5093180;28;20039;-77
2022/09/27 04:43:29;;;;;;;8.25;4.97;;;;;;;;;;5093202;28;20016;-77
2022/09/27 04:45:54;;;;;;;5.50;4.17;;;;;;;;;;5094426;28;20457;-77
2022/09/27 04:48:19;;;;;;;7.83;4.20;;;;;;;;;;5094759;28;20725;-76
2022/09/27 04:50:45;;;;;;;6.25;4.18;;;;;;;;;;5094524;28;20265;-77
2022/09/27 04:53:14;;;;;;;6.78;4.25;;;;;;;;;;5094151;28;20046;-77
2022/09/27 04:55:47;;;;;;;7.03;4.30;;;;;;;;;;5094259;28;20032;-76
2022/09/27 04:58:12;;;;;;;5.63;3.67;;;;;;;;;;5094681;28;20016;-77
2022/09/27 05:00:37;;;;;;;6.53;3.72;;;;;;;;;;5095012;28;20038;-77
2022/09/27 05:03:03;;;;;;;4.65;3.75;;;;;;;;;;5094920;28;20473;-77
2022/09/27 05:05:28;;;;;;;5.27;3.87;;;;;;;;;;5093464;28;20111;-77
2022/09/27 05:07:53;;;;;;;5.68;3.47;;;;;;;;;;5094396;28;20279;-76
2022/09/27 05:10:18;;;;;;;6.53;4.00;;;;;;;;;;5093813;28;20537;-76
2022/09/27 05:12:44;;;;;;;4.93;3.42;;;;;;;;;;5093800;28;20781;-76
2022/09/27 05:15:09;;;;;;;5.93;4.25;;;;;;;;;;5093843;28;20060;-77
2022/09/27 05:17:34;;;;;;;8.88;3.78;;;;;;;;;;5093757;28;20027;-76
2022/09/27 05:20:00;;;;;;;8.33;3.90;;;;;;;;;;5094105;28;20032;-76
2022/09/27 05:22:25;;;;;;;6.30;3.95;;;;;;;;;;5094440;28;20256;-77
2022/09/27 05:24:50;;;;;;;5.25;3.58;;;;;;;;;;5093536;28;20020;-77
2022/09/27 05:27:17;;;;;;;6.13;3.67;;;;;;;;;;5094490;28;20590;-77
2022/09/27 05:29:42;;;;;;;7.85;3.90;;;;;;;;;;5094816;28;20621;-77
2022/09/27 05:32:07;;;;;;;7.10;3.63;;;;;;;;;;5094624;28;20028;-77
2022/09/27 05:34:33;;;;;;;6.07;3.63;;;;;;;;;;5095028;28;20080;-77
2022/09/27 05:36:58;;;;;;;5.88;3.70;;;;;;;;;;5095218;28;20256;-77
2022/09/27 05:39:23;;;;;;;4.95;3.70;;;;;;;;;;5095073;28;20103;-77
2022/09/27 05:41:49;;;;;;;4.30;3.25;;;;;;;;;;5094990;28;20020;-77
2022/09/27 05:44:15;;;;;;;6.78;3.65;;;;;;;;;;5094975;28;20028;-77
2022/09/27 05:46:40;;;;;;;4.65;3.53;;;;;;;;;;5095071;28;20062;-77
2022/09/27 05:49:05;;;;;;;9.32;4.00;;;;;;;;;;5096233;28;20477;-77
2022/09/27 05:51:31;;;;;;;6.37;3.80;;;;;;;;;;5097060;28;20384;-77
2022/09/27 05:53:56;;;;;;;11.90;3.90;;;;;;;;;;5100137;28;20680;-77
2022/09/27 05:56:21;;;;;;;4.78;3.45;;;;;;;;;;5097972;28;20477;-76
2022/09/27 05:58:47;;;;;;;6.30;3.70;;;;;;;;;;5099168;28;20046;-76
2022/09/27 06:01:12;;;;;;;8.70;4.10;;;;;;;;;;5099924;28;20027;-76
2022/09/27 06:03:39;;;;;;;5.23;4.20;;;;;;;;;;5100876;28;20253;-77
2022/09/27 06:06:06;;;;;;;4.90;4.10;;;;;;;;;;5101246;28;20252;-77
2022/09/27 06:08:33;;;;;;;4.53;3.65;;;;;;;;;;5100038;28;20026;-77
2022/09/27 06:11:03;;;;;;;6.32;4.60;;;;;;;;;;5098770;28;20050;-77
2022/09/27 06:13:28;;;;;;;5.30;4.40;;;;;;;;;;5100533;28;20028;-77
2022/09/27 06:15:53;;;;;;;6.88;4.47;;;;;;;;;;5100293;28;20027;-77
2022/09/27 06:18:18;;;;;;;5.53;4.00;;;;;;;;;;5099879;28;20059;-77
2022/09/27 06:20:44;;;;;;;7.55;4.30;;;;;;;;;;5098782;28;20760;-76
2022/09/27 06:23:14;;;;;;;5.35;4.32;;;;;;;;;;5098515;28;20021;-76
2022/09/27 06:25:40;;;;;;;8.32;4.50;;;;;;;;;;5097573;28;20062;-78
2022/09/27 06:28:05;;;;;;;8.68;4.63;;;;;;;;;;5098598;28;20104;-77
2022/09/27 06:30:31;;;;;;;7.00;4.55;;;;;;;;;;5096657;28;20034;-77
2022/09/27 06:33:01;;;;;;;5.50;4.50;;;;;;;;;;5098195;28;20028;-77
2022/09/27 06:35:27;;;;;;;6.25;4.68;;;;;;;;;;5098069;28;20032;-77
2022/09/27 06:37:53;;;;;;;5.70;4.53;;;;;;;;;;5098496;28;20485;-77
2022/09/27 06:40:19;;;;;;;8.40;4.72;;;;;;;;;;5100141;28;20032;-76
2022/09/27 06:42:45;;;;;;;8.68;4.95;;;;;;;;;;5100910;28;20020;-77
2022/09/27 06:45:11;;;;;;;6.65;4.90;;;;;;;;;;5100162;28;20028;-78
2022/09/27 06:47:36;;;;;;;6.82;4.85;;;;;;;;;;5098528;28;20035;-78
2022/09/27 06:50:04;;;;;;;7.50;4.70;;;;;;;;;;5099628;28;20024;-77
2022/09/27 06:52:30;;;;;;;7.93;4.97;;;;;;;;;;5099540;28;20016;-78
2022/09/27 06:54:55;;;;;;;6.00;4.93;;;;;;;;;;5098895;28;20035;-78
2022/09/27 07:00:22;;;;;;;6.80;4.70;;;;;;;;;;5099228;28;20047;-77
2022/09/27 07:00:25;;;;;;;6.63;4.47;;;;;;;;;;5099508;28;20257;-78
2022/09/27 07:02:59;;;;;;;5.65;4.28;;;;;;;;;;5099825;28;20020;-77
2022/09/27 07:05:26;;;;;;;7.20;4.55;;;;;;;;;;5099369;28;20024;-77
2022/09/27 07:07:55;;;;;;;5.15;4.45;;;;;;;;;;5097910;28;20042;-78
2022/09/27 07:10:20;;;;;;;7.25;4.78;;;;;;;;;;5098867;28;20030;-77
2022/09/27 07:12:47;;;;;;;9.20;4.28;;;;;;;;;;5097325;28;20119;-78
2022/09/27 07:15:14;;;;;;;6.22;4.30;;;;;;;;;;5098968;28;20463;-77
2022/09/27 07:17:39;;;;;;;5.80;4.22;;;;;;;;;;5098740;28;20103;-77
2022/09/27 07:20:04;;;;;;;6.35;4.53;;;;;;;;;;5098546;28;20062;-77
2022/09/27 07:22:30;;;;;;;5.82;4.43;;;;;;;;;;5098089;28;20063;-77
2022/09/27 07:24:55;;;;;;;5.97;4.40;;;;;;;;;;5098005;28;20468;-78
2022/09/27 07:27:21;;;;;;;4.60;4.10;;;;;;;;;;5096709;28;20829;-77
2022/09/27 07:29:46;;;;;;;6.35;4.82;;;;;;;;;;5096134;28;20020;-78
2022/09/27 07:32:14;;;;;;;7.47;4.63;;;;;;;;;;5097028;28;20020;-77
2022/09/27 07:34:39;;;;;;;5.68;4.45;;;;;;;;;;5096799;28;20032;-76
2022/09/27 07:37:04;;;;;;;5.65;4.35;;;;;;;;;;5096612;28;20534;-78
2022/09/27 07:39:30;;;;;;;5.65;4.32;;;;;;;;;;5096769;28;20024;-77
2022/09/27 07:41:56;;;;;;;4.70;4.20;;;;;;;;;;5096231;28;20473;-77
2022/09/27 07:44:22;;;;;;;5.82;4.30;;;;;;;;;;5062378;28;991938;-77
2022/09/27 07:46:47;;;;;;;4.70;4.20;;;;;;;;;;5098745;28;20028;-77
2022/09/27 07:49:12;;;;;;;4.85;4.18;;;;;;;;;;5099351;28;20732;-77
2022/09/27 07:51:37;;;;;;;6.23;5.17;;;;;;;;;;5099505;28;20023;-77
2022/09/27 07:54:03;;;;;;;4.77;4.10;;;;;;;;;;5098827;28;20338;-77
2022/09/27 07:56:28;;;;;;;4.80;3.88;;;;;;;;;;5099633;28;20264;-76
2022/09/27 07:58:54;;;;;;;6.00;3.63;;;;;;;;;;5099086;28;20027;-77
2022/09/27 08:01:19;;;;;;;4.82;3.60;;;;;;;;;;5099859;28;20027;-77
2022/09/27 08:03:44;;;;;;;6.53;4.30;;;;;;;;;;5098789;28;20031;-78
2022/09/27 08:06:10;;;;;;;5.63;4.00;;;;;;;;;;5098509;28;20056;-78
2022/09/27 08:08:35;;;;;;;5.53;3.90;;;;;;;;;;5097432;28;20609;-76
2022/09/27 08:11:11;;;;;;;6.38;3.55;;;;;;;;;;5094901;28;20280;-76
2022/09/27 08:13:36;;;;;;;4.18;3.55;;;;;;;;;;5094512;28;20473;-77
2022/09/27 08:16:02;;;;;;;4.00;3.42;;;;;;;;;;5094605;28;20035;-76
2022/09/27 08:18:27;;;;;;;4.10;3.40;;;;;;;;;;5094876;28;20156;-78
2022/09/27 08:20:55;;;;;;;5.03;3.30;;;;;;;;;;5093027;28;20024;-76
2022/09/27 08:23:21;;;;;;;5.97;3.17;;;;;;;;;;5094596;28;20722;-76
2022/09/27 08:25:52;;;;;;;8.30;4.10;;;;;;;;;;5094154;28;20030;-74
2022/09/27 08:28:17;;;;;;;5.43;3.47;;;;;;;;;;5094333;28;20028;-76
2022/09/27 08:30:42;;;;;;;4.23;2.97;;;;;;;;;;5094639;28;20085;-76
2022/09/27 08:33:07;;;;;;;4.00;3.00;;;;;;;;;;5092745;28;20277;-76
2022/09/27 08:35:33;;;;;;;5.23;2.67;;;;;;;;;;5094497;28;20310;-76
2022/09/27 08:38:00;;;;;;;6.00;2.47;;;;;;;;;;5092783;28;20268;-77
2022/09/27 08:40:58;;;;;;;2.92;2.20;;;;;;;;;;5093937;28;20024;-77
2022/09/27 08:43:29;;;;;;;4.07;1.70;;;;;;;;;;5092661;28;20012;-76
2022/09/27 08:46:08;;;;;;;1.67;1.35;;;;;;;;;;5093822;28;20024;-76
2022/09/27 08:48:36;;;;;;;2.55;1.10;;;;;;;;;;5092442;28;20477;-76
2022/09/27 08:51:04;;;;;;;1.02;0.80;;;;;;;;;;5092420;28;20028;-77
2022/09/27 08:53:41;;;;;;;0.70;0.70;;;;;;;;;;5093563;28;20033;-76
2022/09/27 08:56:08;;;;;;;1.55;0.80;;;;;;;;;;5094292;28;20401;-77
2022/09/27 08:58:55;;;;;;;0.95;0.70;;;;;;;;;;5093987;28;20023;-76
2022/09/27 09:01:20;;;;;;;1.00;0.80;;;;;;;;;;5093075;28;20046;-77
2022/09/27 09:03:58;;;;;;;1.23;0.80;;;;;;;;;;5093875;28;20028;-76
2022/09/27 09:06:27;;;;;;;0.82;0.57;;;;;;;;;;5093477;28;20024;-76
2022/09/27 09:09:34;;;;;;;0.57;0.55;;;;;;;;;;5093503;28;20020;-76
2022/09/27 09:15:26;;;;;;;1.42;0.80;;;;;;;;;;5093877;28;20093;-76
2022/09/27 09:18:30;;;;;;;0.52;0.52;;;;;;;;;;5093420;28;20024;-77
2022/09/27 09:21:14;;;;;;;3.20;1.20;;;;;;;;;;5091928;28;20437;-76
2022/09/27 09:24:02;;;;;;;1.45;0.90;;;;;;;;;;5093534;28;20022;-77
2022/09/27 09:26:38;;;;;;;1.67;0.70;;;;;;;;;;5093106;28;20074;-76
2022/09/27 09:29:18;;;;;;;0.90;0.60;;;;;;;;;;5093424;28;20032;-76
2022/09/27 09:31:46;;;;;;;0.80;0.50;;;;;;;;;;5091936;28;20035;-76
2022/09/27 09:34:22;;;;;;;1.90;0.50;;;;;;;;;;5091850;28;20427;-75
2022/09/27 09:37:11;;;;;;;11.50;1.50;;;;;;;;;;5093065;28;20032;-77
2022/09/27 09:40:06;;;;;;;1.23;0.73;;;;;;;;;;5093397;28;20020;-78
2022/09/27 09:42:37;;;;;;;3.45;1.08;;;;;;;;;;5082463;28;20493;-76
2022/09/27 09:45:09;;;;;;;2.08;1.00;;;;;;;;;;5093379;28;20039;-77
2022/09/27 09:47:39;;;;;;;1.25;0.90;;;;;;;;;;5092653;28;20036;-76
2022/09/27 09:50:16;;;;;;;1.52;0.95;;;;;;;;;;5093687;28;20035;-76
2022/09/27 09:52:47;;;;;;;3.30;1.40;;;;;;;;;;5093038;28;20370;-76
2022/09/27 09:55:27;;;;;;;3.63;1.52;;;;;;;;;;5092777;28;20020;-76
2022/09/27 09:58:04;;;;;;;3.35;1.02;;;;;;;;;;5093138;28;20019;-76
2022/09/27 10:00:30;;;;;;;3.33;1.00;;;;;;;;;;5092823;28;20488;-75
2022/09/27 10:02:58;;;;;;;1.67;0.85;;;;;;;;;;5092697;28;20028;-76
2022/09/27 10:05:25;;;;;;;1.40;0.50;;;;;;;;;;5092559;28;20031;-76
2022/09/27 10:07:54;;;;;;;0.75;0.57;;;;;;;;;;5091689;28;20486;-76
2022/09/27 10:10:19;;;;;;;0.90;0.40;;;;;;;;;;5091295;28;20123;-76
2022/09/27 10:12:46;;;;;;;0.93;0.65;;;;;;;;;;5092736;28;20438;-76
2022/09/27 10:15:32;;;;;;;1.50;0.75;;;;;;;;;;5092654;28;20376;-76
2022/09/27 10:17:59;;;;;;;1.52;0.73;;;;;;;;;;5091462;28;20137;-76
2022/09/27 10:20:48;;;;;;;0.73;0.60;;;;;;;;;;5092952;28;20020;-75
2022/09/27 10:23:18;;;;;;;1.27;0.60;;;;;;;;;;5092841;28;20013;-75
2022/09/27 10:25:51;;;;;;;0.40;0.40;;;;;;;;;;5093005;28;20055;-76
2022/09/27 10:28:36;;;;;;;0.68;0.40;;;;;;;;;;5091186;28;20027;-76
2022/09/27 10:31:05;;;;;;;0.93;0.55;;;;;;;;;;5093477;28;20442;-75
2022/09/27 10:33:31;;;;;;;0.73;0.52;;;;;;;;;;5091425;28;20024;-75
2022/09/27 10:35:58;;;;;;;0.90;0.40;;;;;;;;;;5091301;28;20028;-76
2022/09/27 10:38:28;;;;;;;0.88;0.60;;;;;;;;;;5095508;28;20027;-76
2022/09/27 10:40:55;;;;;;;1.05;0.40;;;;;;;;;;5096019;28;20481;-76
2022/09/27 10:43:28;;;;;;;0.95;0.50;;;;;;;;;;5096192;28;20027;-76
2022/09/27 10:46:04;;;;;;;2.40;0.45;;;;;;;;;;5096858;28;20020;-75
2022/09/27 10:48:29;;;;;;;0.55;0.32;;;;;;;;;;5095958;28;20032;-76
2022/09/27 10:50:58;;;;;;;0.32;0.30;;;;;;;;;;5094966;28;20028;-76
2022/09/27 10:53:24;;;;;;;0.32;0.13;;;;;;;;;;5096012;28;20021;-75
2022/09/27 10:55:51;;;;;;;0.20;0.20;;;;;;;;;;5096135;28;20112;-76
2022/09/27 10:58:28;;;;;;;0.25;0.25;;;;;;;;;;5094585;28;20028;-76
2022/09/27 11:01:06;;;;;;;1.48;0.13;;;;;;;;;;5095781;28;20115;-75
2022/09/27 11:03:36;;;;;;;0.57;0.13;;;;;;;;;;5096021;28;20542;-76
2022/09/27 11:06:23;;;;;;;0.60;0.10;;;;;;;;;;5094700;28;20032;-77
2022/09/27 11:08:51;;;;;;;0.32;0.10;;;;;;;;;;5095915;28;20100;-77
2022/09/27 11:11:20;;;;;;;0.30;0.30;;;;;;;;;;5096135;28;20059;-75
2022/09/27 11:14:16;;;;;;;2.05;0.28;;;;;;;;;;5095880;28;20111;-77
2022/09/27 11:16:47;;;;;;;0.22;0.22;;;;;;;;;;5094425;28;20055;-76
2022/09/27 11:19:35;;;;;;;0.47;0.38;;;;;;;;;;5095407;28;20024;-76
2022/09/27 11:22:21;;;;;;;0.17;0.17;;;;;;;;;;5095811;28;20016;-76
2022/09/27 11:25:15;;;;;;;1.45;0.13;;;;;;;;;;5095634;28;20026;-76
2022/09/27 11:27:59;;;;;;;0.10;0.10;;;;;;;;;;5094081;28;20481;-76
2022/09/27 11:30:27;;;;;;;;;;;;;;;;;;5095826;28;20036;-76
2022/09/27 11:33:12;;;;;;;0.47;0.20;;;;;;;;;;5095331;28;19912;-76
2022/09/27 11:36:03;;;;;;;0.17;0.10;;;;;;;;;;5093774;28;20059;-76
2022/09/27 11:38:48;;;;;;;0.20;0.20;;;;;;;;;;5095408;28;20461;-75
2022/09/27 11:41:54;;;;;;;2.83;0.15;;;;;;;;;;5095449;28;20020;-76
2022/09/27 11:44:53;;;;;;;0.77;0.30;;;;;;;;;;5095076;28;20028;-76
2022/09/27 11:47:44;;;;;;;0.95;0.30;;;;;;;;;;5093789;28;20507;-75
2022/09/27 11:50:28;;;;;;;0.20;0.20;;;;;;;;;;5090435;28;20047;-75
2022/09/27 11:53:08;;;;;;;1.05;0.30;;;;;;;;;;5095041;28;20020;-75
2022/09/27 11:55:46;;;;;;;0.45;0.30;;;;;;;;;;5094906;28;20043;-75
2022/09/27 11:58:29;;;;;;;0.30;0.30;;;;;;;;;;5095046;28;20030;-76
2022/09/27 12:01:28;;;;;;;1.67;0.40;;;;;;;;;;5094965;28;20031;-77
2022/09/27 12:04:22;;;;;;;0.10;0.10;;;;;;;;;;5093505;28;20031;-75
2022/09/27 12:07:00;;;;;;;0.20;0.20;;;;;;;;;;5094629;28;20550;-76
2022/09/27 12:09:31;;;;;;;0.17;0.17;;;;;;;;;;5094561;28;20118;-76
2022/09/27 12:12:05;;;;;;;1.55;0.30;;;;;;;;;;5093373;28;20028;-76
2022/09/27 12:14:41;;;;;;;0.50;0.30;;;;;;;;;;5094989;28;20116;-77
2022/09/27 12:17:13;;;;;;;0.20;0.20;;;;;;;;;;5095438;28;20519;-76
2022/09/27 12:19:47;;;;;;;0.85;0.20;;;;;;;;;;5094382;28;20027;-75
2022/09/27 12:22:18;;;;;;;0.30;0.30;;;;;;;;;;5094587;28;20020;-75
2022/09/27 12:24:44;;;;;;;0.55;0.25;;;;;;;;;;5093520;28;20039;-76
2022/09/27 12:27:20;;;;;;;2.42;0.50;;;;;;;;;;5094312;28;20030;-76
2022/09/27 12:29:47;;;;;;;0.57;0.28;;;;;;;;;;5094242;28;20024;-76
2022/09/27 12:32:37;;;;;;;3.10;0.38;;;;;;;;;;5094334;28;20407;-76
2022/09/27 12:35:35;;;;;;;1.45;0.35;;;;;;;;;;5094276;28;20107;-76
2022/09/27 12:38:24;;;;;;;0.30;0.20;;;;;;;;;;5058873;28;20123;-76
2022/09/27 12:40:57;;;;;;;0.77;0.28;;;;;;;;;;5094441;28;20020;-77
2022/09/27 12:43:30;;;;;;;1.93;0.30;;;;;;;;;;5092583;28;20065;-76
2022/09/27 12:46:24;;;;;;;0.43;0.32;;;;;;;;;;5093892;28;20072;-76
2022/09/27 12:49:17;;;;;;;2.00;0.30;;;;;;;;;;5092448;28;20027;-77
2022/09/27 12:51:55;;;;;;;0.40;0.20;;;;;;;;;;5093836;28;20020;-76
2022/09/27 12:54:42;;;;;;;0.35;0.30;;;;;;;;;;5094185;28;20059;-75
2022/09/27 12:57:35;;;;;;;0.20;0.10;;;;;;;;;;5094049;28;20085;-76
2022/09/27 13:00:03;;;;;;;1.05;0.47;;;;;;;;;;5093334;28;20057;-75
2022/09/27 13:02:56;;;;;;;1.48;0.30;;;;;;;;;;5094251;28;20095;-75
2022/09/27 13:05:56;;;;;;;0.70;0.60;;;;;;;;;;5093644;28;20430;-75
2022/09/27 13:09:03;;;;;;;0.30;0.30;;;;;;;;;;5093559;28;20077;-76
2022/09/27 13:11:56;;;;;;;0.30;0.30;;;;;;;;;;5093898;28;20123;-76
2022/09/27 13:14:24;;;;;;;0.45;0.40;;;;;;;;;;5093544;28;20031;-75
2022/09/27 13:16:50;;;;;;;1.55;0.30;;;;;;;;;;5094194;28;20031;-75
2022/09/27 13:19:38;;;;;;;0.45;0.40;;;;;;;;;;5093234;28;20034;-75
2022/09/27 13:22:09;;;;;;;0.40;0.40;;;;;;;;;;5093570;28;20019;-76
2022/09/27 13:24:38;;;;;;;1.65;0.30;;;;;;;;;;5093634;28;20069;-78
2022/09/27 13:27:22;;;;;;;0.40;0.30;;;;;;;;;;5093383;28;20055;-76
2022/09/27 13:29:47;;;;;;;0.40;0.28;;;;;;;;;;5093167;28;20032;-76
2022/09/27 13:32:15;;;;;;;0.30;0.30;;;;;;;;;;5092032;28;20036;-76
2022/09/27 13:34:42;;;;;;;0.93;0.60;;;;;;;;;;5093191;28;20032;-76
2022/09/27 13:37:35;;;;;;;0.80;0.40;;;;;;;;;;5093234;28;20035;-76
2022/09/27 13:40:19;;;;;;;0.40;0.40;;;;;;;;;;5093221;28;20016;-76
2022/09/27 13:43:04;;;;;;;0.30;0.28;;;;;;;;;;5092026;28;20103;-76
2022/09/27 13:45:34;;;;;;;0.95;0.30;;;;;;;;;;5093147;28;20028;-76
2022/09/27 13:48:06;;;;;;;1.23;0.40;;;;;;;;;;5093389;28;20027;-76
2022/09/27 13:50:47;;;;;;;1.15;0.38;;;;;;;;;;5093223;28;20081;-76
2022/09/27 13:53:23;;;;;;;0.47;0.25;;;;;;;;;;5093023;28;20040;-77
2022/09/27 13:55:50;;;;;;;0.38;0.32;;;;;;;;;;5093341;28;20107;-76
2022/09/27 13:58:33;;;;;;;0.93;0.50;;;;;;;;;;5093195;28;20485;-77
2022/09/27 14:01:03;;;;;;;0.63;0.28;;;;;;;;;;5093126;28;20064;-77
2022/09/27 14:03:36;;;;;;;0.63;0.50;;;;;;;;;;5093323;28;20013;-76
2022/09/27 14:06:05;;;;;;;1.43;0.40;;;;;;;;;;5093373;28;20032;-76
2022/09/27 14:08:55;;;;;;;4.35;0.88;;;;;;;;;;5091619;28;20260;-76
2022/09/27 14:11:27;;;;;;;0.73;0.43;;;;;;;;;;5093273;28;20048;-75
2022/09/27 14:13:54;;;;;;;0.85;0.40;;;;;;;;;;5095723;28;20024;-77
2022/09/27 14:16:20;;;;;;;1.60;0.28;;;;;;;;;;5095595;28;20020;-76
2022/09/27 14:18:49;;;;;;;0.80;0.43;;;;;;;;;;5096876;28;20031;-77
2022/09/27 14:21:32;;;;;;;0.68;0.50;;;;;;;;;;5096936;28;20034;-76
2022/09/27 14:24:20;;;;;;;0.30;0.30;;;;;;;;;;5096811;28;20111;-75
2022/09/27 14:26:45;;;;;;;0.40;0.40;;;;;;;;;;5097313;28;20035;-76
2022/09/27 14:29:18;;;;;;;0.60;0.40;;;;;;;;;;5095246;28;20027;-76
2022/09/27 14:31:43;;;;;;;1.20;0.80;;;;;;;;;;5095208;28;20106;-76
2022/09/27 14:34:11;;;;;;;0.40;0.40;;;;;;;;;;5096645;28;20103;-76
2022/09/27 14:39:32;;;;;;;3.22;0.80;;;;;;;;;;5080080;28;20059;-75
2022/09/27 14:41:58;;;;;;;1.20;0.60;;;;;;;;;;5095217;28;20111;-76
2022/09/27 14:44:24;;;;;;;1.45;0.43;;;;;;;;;;5096369;28;20087;-76
2022/09/27 14:47:08;;;;;;;0.65;0.40;;;;;;;;;;5094995;28;20070;-76
2022/09/27 14:49:33;;;;;;;2.23;0.53;;;;;;;;;;5096507;28;20082;-76
2022/09/27 14:51:58;;;;;;;0.70;0.40;;;;;;;;;;5096320;28;20032;-76
2022/09/27 14:54:28;;;;;;;0.40;0.40;;;;;;;;;;5096237;28;20283;-76
2022/09/27 14:56:55;;;;;;;4.35;0.47;;;;;;;;;;5096224;28;20031;-76
2022/09/27 14:59:25;;;;;;;0.30;0.30;;;;;;;;;;5096042;28;20498;-77
2022/09/27 15:01:52;;;;;;;1.85;0.52;;;;;;;;;;5096074;28;20046;-75
2022/09/27 15:04:20;;;;;;;0.60;0.40;;;;;;;;;;5096422;28;20028;-76
2022/09/27 15:06:46;;;;;;;0.90;0.60;;;;;;;;;;5095974;28;20095;-75
2022/09/27 15:09:14;;;;;;;0.63;0.40;;;;;;;;;;5095853;28;20035;-76
2022/09/27 15:11:41;;;;;;;0.85;0.40;;;;;;;;;;5096093;28;20106;-76
2022/09/27 15:14:13;;;;;;;0.68;0.40;;;;;;;;;;5096076;28;20157;-76
2022/09/27 15:16:40;;;;;;;1.58;0.70;;;;;;;;;;5094490;28;20465;-75
2022/09/27 15:19:14;;;;;;;2.78;1.10;;;;;;;;;;5095563;28;20424;-76
2022/09/27 15:21:44;;;;;;;0.70;0.55;;;;;;;;;;5096009;28;20082;-77